createdAt,value
2019-05-18T00:00:45.467Z,100723.17
2019-05-18T00:03:59.287Z,100723.17
2019-05-18T00:06:31.296Z,100713.62
2019-05-18T00:09:02.710Z,100710.90
2019-05-18T00:11:36.359Z,100719.02
2019-05-18T00:14:05.284Z,100714.58
2019-05-18T00:16:34.180Z,100710.22
2019-05-18T00:19:03.092Z,100703.34
2019-05-18T00:21:58.460Z,100712.83
2019-05-18T00:24:34.367Z,100701.55
2019-05-18T00:27:04.700Z,100699.86
2019-05-18T00:29:40.914Z,100705.83
2019-05-18T00:32:16.013Z,100699.78
2019-05-18T00:34:50.101Z,100692.17
2019-05-18T00:37:18.921Z,100694.06
2019-05-18T00:39:53.746Z,100693.48
2019-05-18T00:42:22.649Z,100704.45
2019-05-18T00:44:52.802Z,100697.34
2019-05-18T00:47:22.779Z,100698.16
2019-05-18T00:49:51.638Z,100701.91
2019-05-18T00:52:20.439Z,100696.44
2019-05-18T00:54:49.451Z,100699.99
2019-05-18T00:57:18.288Z,100695.66
2019-05-18T00:59:48.055Z,100688.07
2019-05-18T01:02:20.059Z,100687.55
2019-05-18T01:04:51.017Z,100679.08
2019-05-18T01:07:21.415Z,100688.63
2019-05-18T01:09:50.109Z,100685.39
2019-05-18T01:12:18.754Z,100680.76
2019-05-18T01:14:47.347Z,100676.88
2019-05-18T01:17:16.025Z,100677.16
2019-05-18T01:19:44.707Z,100677.40
2019-05-18T01:22:14.249Z,100678.77
2019-05-18T01:24:46.494Z,100684.52
2019-05-18T01:27:18.147Z,100677.40
2019-05-18T01:29:46.727Z,100677.72
2019-05-18T01:32:18.012Z,100675.55
2019-05-18T01:34:46.703Z,100672.30
2019-05-18T01:37:30.411Z,100669.31
2019-05-18T01:39:59.276Z,100676.38
2019-05-18T01:42:28.089Z,100669.03
2019-05-18T01:44:56.821Z,100671.83
2019-05-18T01:47:25.511Z,100662.59
2019-05-18T01:49:54.197Z,100654.47
2019-05-18T01:52:22.892Z,100659.99
2019-05-18T01:54:51.519Z,100653.47
2019-05-18T01:57:20.256Z,100640.95
2019-05-18T01:59:52.943Z,100645.06
2019-05-18T02:02:30.584Z,100648.86
2019-05-18T02:05:02.134Z,100643.69
2019-05-18T02:20:35.298Z,100653.23
2019-05-18T02:23:04.017Z,100648.84
2019-05-18T02:25:32.874Z,100648.55
2019-05-18T02:28:02.983Z,100647.20
2019-05-18T02:30:31.784Z,100641.80
2019-05-18T02:33:03.685Z,100648.62
2019-05-18T02:35:32.557Z,100645.59
2019-05-18T02:38:15.281Z,100645.58
2019-05-18T02:40:53.647Z,100640.05
2019-05-18T02:43:22.533Z,100641.88
2019-05-18T02:46:30.146Z,100638.90
2019-05-18T02:52:31.276Z,100643.91
2019-05-18T02:55:00.065Z,100640.37
2019-05-18T02:57:29.717Z,100639.28
2019-05-18T02:59:58.549Z,100634.38
2019-05-18T03:02:28.201Z,100632.84
2019-05-18T03:04:57.166Z,100633.39
2019-05-18T03:07:26.004Z,100628.52
2019-05-18T03:09:55.547Z,100623.30
2019-05-18T03:12:26.703Z,100623.32
2019-05-18T03:14:55.507Z,100621.16
2019-05-18T03:17:25.373Z,100617.08
2019-05-18T03:19:54.493Z,100615.71
2019-05-18T03:26:20.613Z,100620.64
2019-05-18T03:29:24.758Z,100621.71
2019-05-18T03:31:53.659Z,100620.34
2019-05-18T03:34:22.825Z,100612.45
2019-05-18T03:37:12.955Z,100614.36
2019-05-18T03:40:19.687Z,100613.00
2019-05-18T03:42:48.685Z,100606.42
2019-05-18T03:45:19.974Z,100609.68
2019-05-18T03:47:48.857Z,100609.44
2019-05-18T03:50:17.713Z,100604.56
2019-05-18T03:53:07.423Z,100604.04
2019-05-18T04:00:05.771Z,100613.90
2019-05-18T04:03:14.757Z,100607.92
2019-05-18T04:05:43.558Z,100609.17
2019-05-18T04:08:13.039Z,100613.29
2019-05-18T04:10:41.916Z,100607.83
2019-05-18T04:13:25.902Z,100616.31
2019-05-18T04:16:08.054Z,100617.48
2019-05-18T04:22:37.108Z,100615.61
2019-05-18T04:25:06.643Z,100616.79
2019-05-18T04:27:35.618Z,100613.87
2019-05-18T04:30:07.377Z,100618.31
2019-05-18T04:32:36.239Z,100620.56
2019-05-18T04:35:07.700Z,100626.35
2019-05-18T04:37:39.052Z,100620.41
2019-05-18T04:40:41.428Z,100624.27
2019-05-18T04:44:12.250Z,100630.30
2019-05-18T04:46:41.110Z,100622.12
2019-05-18T04:53:08.518Z,100623.20
2019-05-18T04:55:38.387Z,100623.49
2019-05-18T04:58:38.434Z,100623.57
2019-05-18T05:01:07.272Z,100623.03
2019-05-18T05:03:36.193Z,100625.80
2019-05-18T05:06:05.081Z,100620.64
2019-05-18T05:12:15.687Z,100627.98
2019-05-18T05:14:51.199Z,100616.55
2019-05-18T05:17:23.529Z,100618.45
2019-05-18T05:19:52.344Z,100617.09
2019-05-18T05:22:22.353Z,100615.94
2019-05-18T05:24:52.671Z,100613.21
2019-05-18T05:28:13.515Z,100622.95
2019-05-18T05:38:15.943Z,100616.92
2019-05-18T05:41:03.975Z,100612.52
2019-05-18T05:43:52.468Z,100616.87
2019-05-18T05:47:22.058Z,100614.14
2019-05-18T05:55:48.966Z,100618.08
2019-05-18T05:58:30.047Z,100615.83
2019-05-18T06:01:10.076Z,100613.34
2019-05-18T06:03:51.026Z,100622.30
2019-05-18T06:06:23.000Z,100622.88
2019-05-18T06:08:52.636Z,100622.10
2019-05-18T06:14:33.707Z,100621.88
2019-05-18T06:17:08.291Z,100625.95
2019-05-18T06:19:39.432Z,100623.48
2019-05-18T06:22:09.828Z,100626.73
2019-05-18T06:24:38.756Z,100630.81
2019-05-18T06:27:08.918Z,100625.60
2019-05-18T06:29:46.600Z,100634.55
2019-05-18T06:32:15.967Z,100627.93
2019-05-18T06:34:46.345Z,100633.86
2019-05-18T06:37:15.253Z,100635.20
2019-05-18T06:39:45.702Z,100635.73
2019-05-18T06:43:09.095Z,100641.15
2019-05-18T06:46:26.286Z,100640.59
2019-05-18T06:49:14.517Z,100641.13
2019-05-18T06:51:46.073Z,100636.45
2019-05-18T06:54:18.548Z,100632.59
2019-05-18T06:56:47.739Z,100636.14
2019-05-18T06:59:35.950Z,100637.75
2019-05-18T07:02:05.464Z,100632.58
2019-05-18T07:04:38.055Z,100633.66
2019-05-18T07:07:14.529Z,100633.83
2019-05-18T07:10:02.816Z,100641.09
2019-05-18T07:12:37.084Z,100637.42
2019-05-18T07:15:12.422Z,100646.35
2019-05-18T07:18:10.663Z,100654.17
2019-05-18T07:20:59.316Z,100647.04
2019-05-18T07:23:36.833Z,100645.36
2019-05-18T07:26:15.471Z,100647.19
2019-05-18T07:28:59.467Z,100653.63
2019-05-18T07:31:32.614Z,100654.33
2019-05-18T07:34:21.836Z,100659.16
2019-05-18T07:36:54.898Z,100652.77
2019-05-18T07:42:30.258Z,100657.68
2019-05-18T07:45:01.657Z,100662.22
2019-05-18T07:47:36.376Z,100660.52
2019-05-18T07:50:06.924Z,100658.84
2019-05-18T07:52:54.326Z,100664.22
2019-05-18T07:58:36.869Z,100657.73
2019-05-18T08:01:09.046Z,100658.53
2019-05-18T08:03:44.445Z,100661.50
2019-05-18T08:06:21.922Z,100666.94
2019-05-18T08:08:54.354Z,100666.03
2019-05-18T08:11:29.495Z,100665.41
2019-05-18T08:13:59.981Z,100664.77
2019-05-18T08:16:28.927Z,100657.30
2019-05-18T08:18:59.293Z,100664.34
2019-05-18T08:21:52.263Z,100662.36
2019-05-18T08:24:08.908Z,100667.50
2019-05-18T08:26:46.388Z,100669.62
2019-05-18T08:29:20.546Z,100663.34
2019-05-18T08:31:49.188Z,100667.70
2019-05-18T08:34:32.109Z,100666.03
2019-05-18T08:37:03.570Z,100671.20
2019-05-18T08:42:52.866Z,100670.02
2019-05-18T08:45:26.345Z,100663.38
2019-05-18T08:48:08.469Z,100670.67
2019-05-18T08:50:38.910Z,100670.06
2019-05-18T08:53:14.006Z,100668.35
2019-05-18T08:55:56.955Z,100672.94
2019-05-18T08:58:27.899Z,100666.64
2019-05-18T09:03:49.344Z,100663.26
2019-05-18T09:06:20.143Z,100670.55
2019-05-18T09:08:49.167Z,100672.94
2019-05-18T09:11:29.352Z,100670.38
2019-05-18T09:14:02.189Z,100668.66
2019-05-18T09:16:34.619Z,100669.57
2019-05-18T09:19:09.281Z,100669.12
2019-05-18T09:21:41.171Z,100669.14
2019-05-18T09:24:13.947Z,100672.73
2019-05-18T09:26:44.177Z,100673.09
2019-05-18T09:29:15.023Z,100675.08
2019-05-18T09:31:44.309Z,100679.03
2019-05-18T09:34:16.080Z,100674.73
2019-05-18T09:36:56.359Z,100677.81
2019-05-18T09:39:38.949Z,100682.57
2019-05-18T09:42:09.733Z,100686.88
2019-05-18T09:44:41.850Z,100685.93
2019-05-18T09:47:14.794Z,100677.58
2019-05-18T09:49:59.151Z,100678.85
2019-05-18T09:52:44.234Z,100685.50
2019-05-18T09:55:00.729Z,100683.59
2019-05-18T09:57:30.795Z,100685.83
2019-05-18T09:59:59.645Z,100683.09
2019-05-18T10:02:43.175Z,100673.20
2019-05-18T10:05:24.053Z,100671.30
2019-05-18T10:08:04.405Z,100674.08
2019-05-18T10:10:34.806Z,100668.06
2019-05-18T10:13:10.562Z,100675.72
2019-05-18T10:18:28.963Z,100676.48
2019-05-18T10:21:00.076Z,100676.59
2019-05-18T10:23:28.913Z,100679.69
2019-05-18T10:25:59.378Z,100676.30
2019-05-18T10:28:35.399Z,100675.41
2019-05-18T10:31:10.719Z,100681.02
2019-05-18T10:33:41.821Z,100666.80
2019-05-18T10:36:14.987Z,100666.97
2019-05-18T10:41:34.815Z,100663.44
2019-05-18T10:44:06.034Z,100656.24
2019-05-18T10:46:37.686Z,100652.94
2019-05-18T10:49:07.875Z,100656.14
2019-05-18T10:51:51.794Z,100653.83
2019-05-18T10:54:21.904Z,100649.83
2019-05-18T10:56:57.423Z,100651.67
2019-05-18T10:59:30.799Z,100652.74
2019-05-18T11:02:02.722Z,100659.36
2019-05-18T11:04:36.348Z,100659.45
2019-05-18T11:07:07.781Z,100652.57
2019-05-18T11:09:40.238Z,100655.41
2019-05-18T11:12:11.615Z,100662.05
2019-05-18T11:14:47.187Z,100659.69
2019-05-18T11:17:16.032Z,100650.80
2019-05-18T11:19:45.097Z,100656.61
2019-05-18T11:22:18.986Z,100662.77
2019-05-18T11:24:47.694Z,100656.45
2019-05-18T11:27:22.609Z,100654.84
2019-05-18T11:29:55.952Z,100658.97
2019-05-18T11:32:30.151Z,100659.62
2019-05-18T11:35:04.837Z,100656.72
2019-05-18T11:37:34.035Z,100658.66
2019-05-18T11:40:06.104Z,100665.60
2019-05-18T11:42:34.866Z,100657.94
2019-05-18T11:45:17.859Z,100662.29
2019-05-18T11:47:46.603Z,100669.40
2019-05-18T11:50:24.478Z,100659.54
2019-05-18T11:52:56.719Z,100656.80
2019-05-18T11:55:27.235Z,100659.31
2019-05-18T11:58:02.280Z,100656.80
2019-05-18T12:01:07.144Z,100657.77
2019-05-18T12:03:42.450Z,100655.73
2019-05-18T12:06:33.907Z,100660.34
2019-05-18T12:09:12.221Z,100662.70
2019-05-18T12:11:46.175Z,100658.64
2019-05-18T12:14:20.873Z,100667.45
2019-05-18T12:19:45.380Z,100664.38
2019-05-18T12:22:25.167Z,100660.53
2019-05-18T12:25:10.730Z,100667.47
2019-05-18T12:27:39.914Z,100671.34
2019-05-18T12:33:02.455Z,100679.12
2019-05-18T12:35:34.062Z,100677.98
2019-05-18T12:38:07.353Z,100676.94
2019-05-18T12:40:40.244Z,100671.92
2019-05-18T12:43:15.774Z,100679.20
2019-05-18T12:45:51.267Z,100673.45
2019-05-18T12:48:20.952Z,100671.28
2019-05-18T12:50:51.962Z,100671.02
2019-05-18T12:53:32.038Z,100676.05
2019-05-18T12:56:14.374Z,100672.96
2019-05-18T12:58:50.655Z,100678.20
2019-05-18T13:01:27.051Z,100675.72
2019-05-18T13:04:02.483Z,100677.02
2019-05-18T13:06:34.343Z,100669.06
2019-05-18T13:09:04.699Z,100671.81
2019-05-18T13:11:39.818Z,100669.06
2019-05-18T13:14:09.803Z,100674.83
2019-05-18T13:16:40.083Z,100669.39
2019-05-18T13:19:08.933Z,100675.23
2019-05-18T13:21:38.885Z,100675.89
2019-05-18T13:24:11.508Z,100674.02
2019-05-18T13:26:41.381Z,100682.02
2019-05-18T13:29:11.425Z,100680.91
2019-05-18T13:31:40.131Z,100671.83
2019-05-18T13:34:08.825Z,100671.77
2019-05-18T13:36:37.335Z,100669.72
2019-05-18T13:39:08.928Z,100675.23
2019-05-18T13:41:40.622Z,100673.63
2019-05-18T13:44:10.665Z,100675.07
2019-05-18T13:46:39.765Z,100673.77
2019-05-18T13:49:09.878Z,100673.53
2019-05-18T13:51:40.527Z,100672.16
2019-05-18T13:54:11.694Z,100682.67
2019-05-18T13:56:40.486Z,100681.21
2019-05-18T13:59:09.762Z,100679.77
2019-05-18T14:01:38.899Z,100680.17
2019-05-18T14:04:08.368Z,100686.06
2019-05-18T14:06:38.425Z,100688.82
2019-05-18T14:09:07.341Z,100681.55
2019-05-18T14:11:36.451Z,100692.88
2019-05-18T14:14:06.610Z,100691.59
2019-05-18T14:16:35.289Z,100693.45
2019-05-18T14:19:04.154Z,100694.83
2019-05-18T14:21:35.728Z,100691.48
2019-05-18T14:24:04.787Z,100685.42
2019-05-18T14:26:33.757Z,100691.91
2019-05-18T14:29:06.948Z,100698.13
2019-05-18T14:31:37.033Z,100695.38
2019-05-18T14:34:05.827Z,100692.62
2019-05-18T14:36:34.753Z,100689.64
2019-05-18T14:39:06.382Z,100687.78
2019-05-18T14:41:35.138Z,100690.44
2019-05-18T14:44:08.557Z,100688.52
2019-05-18T14:46:37.943Z,100692.06
2019-05-18T14:49:12.869Z,100695.30
2019-05-18T14:51:42.171Z,100695.27
2019-05-18T14:54:12.833Z,100695.04
2019-05-18T14:56:49.451Z,100695.75
2019-05-18T14:59:21.147Z,100699.94
2019-05-18T15:01:49.883Z,100690.91
2019-05-18T15:04:18.583Z,100686.13
2019-05-18T15:06:50.949Z,100687.02
2019-05-18T15:09:21.447Z,100687.25
2019-05-18T15:11:52.659Z,100687.41
2019-05-18T15:14:21.748Z,100694.38
2019-05-18T15:16:55.321Z,100687.94
2019-05-18T15:19:27.128Z,100690.13
2019-05-18T15:21:55.943Z,100701.46
2019-05-18T15:24:25.487Z,100691.50
2019-05-18T15:26:54.133Z,100697.50
2019-05-18T15:29:22.940Z,100686.33
2019-05-18T15:31:52.963Z,100697.89
2019-05-18T15:34:27.403Z,100702.90
2019-05-18T15:36:56.757Z,100699.20
2019-05-18T15:39:36.632Z,100707.19
2019-05-18T15:42:09.667Z,100701.78
2019-05-18T15:44:39.721Z,100709.45
2019-05-18T15:47:08.542Z,100711.16
2019-05-18T15:49:37.203Z,100705.16
2019-05-18T15:52:06.485Z,100703.23
2019-05-18T15:54:36.278Z,100705.16
2019-05-18T15:57:05.268Z,100699.92
2019-05-18T15:59:34.149Z,100705.98
2019-05-18T16:02:09.028Z,100703.88
2019-05-18T16:04:45.857Z,100709.22
2019-05-18T16:07:27.331Z,100706.92
2019-05-18T16:10:16.433Z,100707.47
2019-05-18T16:16:41.828Z,100707.41
2019-05-18T16:19:13.290Z,100710.90
2019-05-18T16:21:43.570Z,100720.91
2019-05-18T16:24:18.559Z,100717.43
2019-05-18T16:26:50.167Z,100721.70
2019-05-18T16:29:19.546Z,100718.02
2019-05-18T16:31:49.148Z,100726.36
2019-05-18T16:34:20.189Z,100722.85
2019-05-18T16:36:50.783Z,100734.25
2019-05-18T16:39:19.695Z,100736.51
2019-05-18T16:41:50.748Z,100734.14
2019-05-18T16:44:22.770Z,100740.60
2019-05-18T16:46:52.437Z,100737.91
2019-05-18T16:49:23.420Z,100737.41
2019-05-18T16:51:53.203Z,100739.42
2019-05-18T16:54:23.189Z,100738.43
2019-05-18T16:56:52.210Z,100744.80
2019-05-18T16:59:24.068Z,100742.05
2019-05-18T17:01:55.597Z,100743.56
2019-05-18T17:04:29.163Z,100748.34
2019-05-18T17:07:01.178Z,100747.39
2019-05-18T17:09:32.245Z,100750.41
2019-05-18T17:12:01.111Z,100745.41
2019-05-18T17:14:30.052Z,100748.95
2019-05-18T17:16:58.874Z,100749.21
2019-05-18T17:19:29.155Z,100762.63
2019-05-18T17:21:58.009Z,100760.92
2019-05-18T17:24:27.629Z,100771.36
2019-05-18T17:26:58.097Z,100766.74
2019-05-18T17:29:27.583Z,100770.91
2019-05-18T17:31:56.425Z,100769.30
2019-05-18T17:34:28.530Z,100774.06
2019-05-18T17:36:57.464Z,100779.28
2019-05-18T17:39:26.314Z,100782.03
2019-05-18T17:41:55.317Z,100784.53
2019-05-18T17:44:24.351Z,100781.66
2019-05-18T17:46:53.324Z,100784.77
2019-05-18T17:49:26.871Z,100787.88
2019-05-18T17:51:52.999Z,100789.03
2019-05-18T17:54:24.757Z,100788.97
2019-05-18T17:57:13.107Z,100783.38
2019-05-18T17:59:44.201Z,100785.06
2019-05-18T18:02:14.074Z,100784.56
2019-05-18T18:04:43.045Z,100789.49
2019-05-18T18:07:11.929Z,100792.36
2019-05-18T18:09:43.454Z,100790.59
2019-05-18T18:12:13.166Z,100791.50
2019-05-18T18:14:43.910Z,100790.09
2019-05-18T18:17:13.202Z,100792.52
2019-05-18T18:19:42.815Z,100796.08
2019-05-18T18:22:13.278Z,100799.92
2019-05-18T18:24:44.139Z,100802.00
2019-05-18T18:27:25.356Z,100798.47
2019-05-18T18:29:53.351Z,100798.85
2019-05-18T18:32:24.497Z,100804.53
2019-05-18T18:34:56.141Z,100802.92
2019-05-18T18:37:27.582Z,100797.98
2019-05-18T18:39:56.549Z,100795.75
2019-05-18T18:42:25.705Z,100795.08
2019-05-18T18:44:56.890Z,100796.09
2019-05-18T18:47:26.691Z,100800.13
2019-05-18T18:49:55.570Z,100803.83
2019-05-18T18:52:24.690Z,100798.45
2019-05-18T18:54:53.789Z,100804.40
2019-05-18T18:57:22.646Z,100808.75
2019-05-18T18:59:57.762Z,100803.25
2019-05-18T19:02:26.653Z,100805.72
2019-05-18T19:04:55.504Z,100816.20
2019-05-18T19:07:26.033Z,100813.27
2019-05-18T19:09:55.600Z,100817.38
2019-05-18T19:12:24.460Z,100818.30
2019-05-18T19:14:57.284Z,100818.66
2019-05-18T19:17:29.224Z,100816.86
2019-05-18T19:19:58.017Z,100820.78
2019-05-18T19:22:30.854Z,100825.26
2019-05-18T19:24:59.788Z,100827.57
2019-05-18T19:27:28.611Z,100831.53
2019-05-18T19:29:58.446Z,100825.97
2019-05-18T19:32:30.149Z,100835.11
2019-05-18T19:34:59.038Z,100835.53
2019-05-18T19:37:40.962Z,100841.17
2019-05-18T19:40:11.128Z,100840.22
2019-05-18T19:42:40.147Z,100845.00
2019-05-18T19:45:11.114Z,100841.23
2019-05-18T19:47:40.546Z,100845.96
2019-05-18T19:50:10.049Z,100845.77
2019-05-18T19:52:40.905Z,100859.19
2019-05-18T19:55:14.911Z,100857.31
2019-05-18T19:57:43.807Z,100853.51
2019-05-18T20:00:14.955Z,100862.59
2019-05-18T20:02:50.232Z,100864.81
2019-05-18T20:05:21.155Z,100862.18
2019-05-18T20:07:52.121Z,100870.50
2019-05-18T20:10:22.671Z,100871.94
2019-05-18T20:12:53.683Z,100870.36
2019-05-18T20:15:25.158Z,100871.56
2019-05-18T20:17:53.978Z,100870.87
2019-05-18T20:20:22.995Z,100873.40
2019-05-18T20:22:51.987Z,100875.41
2019-05-18T20:25:20.918Z,100872.86
2019-05-18T20:27:49.773Z,100878.42
2019-05-18T20:30:18.674Z,100877.09
2019-05-18T20:32:47.558Z,100886.97
2019-05-18T20:35:17.103Z,100885.61
2019-05-18T20:37:46.680Z,100885.36
2019-05-18T20:40:17.558Z,100895.00
2019-05-18T20:42:51.163Z,100895.67
2019-05-18T20:45:20.145Z,100904.42
2019-05-18T20:48:01.062Z,100903.91
2019-05-18T20:50:32.368Z,100897.94
2019-05-18T20:53:01.182Z,100892.39
2019-05-18T20:55:30.060Z,100899.88
2019-05-18T20:58:08.680Z,100895.02
2019-05-18T21:00:38.681Z,100894.73
2019-05-18T21:03:07.765Z,100902.40
2019-05-18T21:05:38.331Z,100898.59
2019-05-18T21:08:09.049Z,100904.61
2019-05-18T21:10:40.917Z,100910.38
2019-05-18T21:13:14.343Z,100916.68
2019-05-18T21:15:46.951Z,100905.45
2019-05-18T21:18:18.231Z,100901.95
2019-05-18T21:20:49.823Z,100897.58
2019-05-18T21:23:28.716Z,100899.77
2019-05-18T21:25:59.245Z,100907.16
2019-05-18T21:28:30.006Z,100910.48
2019-05-18T21:31:02.687Z,100906.38
2019-05-18T21:33:34.793Z,100911.85
2019-05-18T21:36:03.612Z,100915.95
2019-05-18T21:38:32.499Z,100918.69
2019-05-18T21:41:01.330Z,100919.54
2019-05-18T21:43:37.139Z,100914.73
2019-05-18T21:46:06.733Z,100914.52
2019-05-18T21:48:41.018Z,100919.45
2019-05-18T21:51:09.921Z,100918.36
2019-05-18T21:53:40.440Z,100916.41
2019-05-18T21:56:09.310Z,100912.06
2019-05-18T21:58:38.183Z,100919.16
2019-05-18T22:01:10.464Z,100916.15
2019-05-18T22:03:39.288Z,100920.75
2019-05-18T22:06:08.702Z,100920.20
2019-05-18T22:08:37.525Z,100916.90
2019-05-18T22:11:13.893Z,100921.28
2019-05-18T22:13:48.858Z,100928.64
2019-05-18T22:16:23.561Z,100923.70
2019-05-18T22:18:52.431Z,100929.94
2019-05-18T22:21:21.252Z,100926.36
2019-05-18T22:23:52.479Z,100929.91
2019-05-18T22:26:22.010Z,100926.36
2019-05-18T22:28:50.841Z,100928.56
2019-05-18T22:31:19.905Z,100924.48
2019-05-18T22:33:48.845Z,100926.97
2019-05-18T22:36:23.255Z,100929.69
2019-05-18T22:38:55.518Z,100926.13
2019-05-18T22:41:24.471Z,100928.05
2019-05-18T22:43:57.242Z,100934.59
2019-05-18T22:46:26.066Z,100935.95
2019-05-18T22:48:54.918Z,100930.76
2019-05-18T22:51:23.890Z,100930.76
2019-05-18T22:53:52.719Z,100926.66
2019-05-18T22:56:31.999Z,100926.95
2019-05-18T22:59:06.553Z,100933.57
2019-05-18T23:01:35.514Z,100932.52
2019-05-18T23:04:04.522Z,100930.08
2019-05-18T23:06:33.485Z,100936.14
2019-05-18T23:09:03.098Z,100937.82
2019-05-18T23:11:31.915Z,100929.94
2019-05-18T23:14:01.092Z,100929.73
2019-05-18T23:16:30.027Z,100927.06
2019-05-18T23:19:03.743Z,100926.01
2019-05-18T23:21:32.621Z,100931.25
2019-05-18T23:24:01.460Z,100927.20
2019-05-18T23:26:30.263Z,100925.36
2019-05-18T23:28:59.112Z,100924.44
2019-05-18T23:31:28.560Z,100929.40
2019-05-18T23:33:58.599Z,100933.84
2019-05-18T23:36:29.251Z,100931.95
2019-05-18T23:38:58.099Z,100941.22
2019-05-18T23:41:26.945Z,100939.86
2019-05-18T23:43:56.548Z,100942.34
2019-05-18T23:46:26.468Z,100942.89
2019-05-18T23:48:55.350Z,100947.03
2019-05-18T23:51:24.218Z,100946.50
2019-05-18T23:53:54.983Z,100950.97
2019-05-18T23:56:24.052Z,100944.55
2019-05-18T23:58:52.946Z,100957.19
